createdAt,value
2018-12-27T00:01:59.863Z,19.27
2018-12-27T00:04:28.425Z,20.05
2018-12-27T00:06:56.988Z,19.43
2018-12-27T00:09:25.544Z,19.23
2018-12-27T00:11:54.104Z,19.57
2018-12-27T00:14:22.682Z,18.27
2018-12-27T00:16:51.240Z,16.97
2018-12-27T00:19:19.817Z,17.50
2018-12-27T00:21:48.375Z,17.80
2018-12-27T00:24:16.986Z,17.60
2018-12-27T00:26:45.548Z,19.67
2018-12-27T00:29:14.142Z,19.67
2018-12-27T00:31:43.059Z,22.75
2018-12-27T00:34:11.964Z,20.57
2018-12-27T00:36:42.409Z,20.25
2018-12-27T00:39:11.326Z,20.83
2018-12-27T00:41:40.237Z,19.17
2018-12-27T00:44:09.159Z,18.80
2018-12-27T00:46:38.056Z,18.73
2018-12-27T00:49:07.024Z,19.70
2018-12-27T00:51:35.931Z,19.20
2018-12-27T00:54:04.851Z,20.95
2018-12-27T00:56:34.716Z,17.87
2018-12-27T00:59:03.627Z,18.43
2018-12-27T01:01:33.219Z,19.60
2018-12-27T01:04:02.125Z,19.70
2018-12-27T01:06:31.028Z,20.03
2018-12-27T01:08:59.940Z,19.80
2018-12-27T01:11:28.854Z,19.17
2018-12-27T01:13:57.747Z,18.57
2018-12-27T01:16:26.673Z,18.92
2018-12-27T01:18:55.588Z,18.00
2018-12-27T01:21:24.492Z,17.87
2018-12-27T01:23:53.392Z,19.10
2018-12-27T01:26:22.323Z,18.42
2018-12-27T01:32:25.478Z,18.00
2018-12-27T01:38:22.965Z,18.07
2018-12-27T01:40:51.873Z,17.87
2018-12-27T01:43:20.776Z,19.30
2018-12-27T01:45:49.684Z,17.20
2018-12-27T01:48:18.594Z,19.10
2018-12-27T01:50:47.518Z,18.63
2018-12-27T01:53:16.393Z,18.37
2018-12-27T01:55:45.318Z,17.27
2018-12-27T01:58:14.219Z,18.77
2018-12-27T02:00:43.475Z,20.20
2018-12-27T02:03:12.402Z,17.80
2018-12-27T02:05:41.346Z,18.10
2018-12-27T02:08:10.243Z,18.93
2018-12-27T02:10:39.147Z,17.40
2018-12-27T02:13:08.052Z,17.42
2018-12-27T02:15:36.970Z,17.17
2018-12-27T02:18:05.893Z,15.87
2018-12-27T02:20:34.792Z,17.73
2018-12-27T02:23:03.711Z,16.30
2018-12-27T02:25:32.633Z,17.60
2018-12-27T02:28:01.565Z,16.47
2018-12-27T02:30:30.465Z,18.47
2018-12-27T02:32:59.376Z,18.37
2018-12-27T02:35:28.281Z,16.87
2018-12-27T02:37:57.185Z,18.43
2018-12-27T02:40:26.102Z,17.25
2018-12-27T02:42:55.020Z,19.20
2018-12-27T02:45:23.911Z,18.10
2018-12-27T02:47:52.819Z,17.87
2018-12-27T02:50:22.321Z,18.20
2018-12-27T02:52:51.221Z,18.83
2018-12-27T02:55:20.116Z,17.47
2018-12-27T02:57:49.020Z,17.67
2018-12-27T03:00:17.920Z,16.97
2018-12-27T03:02:46.823Z,18.32
2018-12-27T03:05:15.757Z,17.77
2018-12-27T03:07:44.671Z,17.70
2018-12-27T03:10:13.565Z,17.40
2018-12-27T03:12:42.479Z,17.00
2018-12-27T03:15:11.392Z,17.00
2018-12-27T03:17:40.292Z,16.30
2018-12-27T03:20:09.214Z,15.93
2018-12-27T03:22:38.117Z,15.30
2018-12-27T03:25:07.019Z,14.33
2018-12-27T03:27:35.926Z,15.50
2018-12-27T03:30:04.821Z,15.37
2018-12-27T03:32:33.745Z,15.23
2018-12-27T03:35:02.732Z,15.15
2018-12-27T03:37:31.926Z,14.43
2018-12-27T03:40:00.843Z,15.37
2018-12-27T03:42:29.762Z,15.00
2018-12-27T03:44:58.665Z,13.17
2018-12-27T03:47:27.564Z,14.07
2018-12-27T03:49:56.481Z,13.77
2018-12-27T03:52:25.404Z,14.30
2018-12-27T03:54:54.305Z,15.57
2018-12-27T03:57:23.220Z,14.17
2018-12-27T03:59:52.134Z,14.47
2018-12-27T04:02:21.063Z,15.13
2018-12-27T04:04:49.994Z,16.63
2018-12-27T04:07:20.388Z,16.60
2018-12-27T04:09:49.319Z,15.77
2018-12-27T04:12:18.352Z,16.20
2018-12-27T04:14:47.256Z,15.27
2018-12-27T04:17:15.817Z,15.50
2018-12-27T04:19:44.384Z,16.13
2018-12-27T04:22:12.944Z,16.90
2018-12-27T04:24:41.516Z,16.73
2018-12-27T04:27:10.092Z,16.60
2018-12-27T04:29:38.662Z,16.23
2018-12-27T04:32:07.258Z,16.10
2018-12-27T04:34:35.896Z,16.30
2018-12-27T04:37:04.536Z,16.00
2018-12-27T04:39:33.096Z,17.07
2018-12-27T04:42:01.676Z,17.07
2018-12-27T04:44:30.224Z,15.27
2018-12-27T04:46:58.788Z,16.87
2018-12-27T04:49:27.353Z,16.60
2018-12-27T04:51:55.935Z,15.93
2018-12-27T04:54:24.537Z,24.37
2018-12-27T04:56:54.227Z,17.60
2018-12-27T04:59:22.801Z,16.90
2018-12-27T05:01:51.382Z,15.07
2018-12-27T05:04:19.930Z,15.60
2018-12-27T05:06:48.513Z,15.83
2018-12-27T05:09:17.065Z,16.23
2018-12-27T05:11:45.653Z,15.10
2018-12-27T05:14:14.219Z,15.85
2018-12-27T05:16:42.806Z,15.53
2018-12-27T05:19:11.384Z,16.37
2018-12-27T05:21:39.966Z,14.77
2018-12-27T05:24:08.554Z,15.50
2018-12-27T05:26:37.138Z,15.23
2018-12-27T05:29:05.707Z,15.90
2018-12-27T05:31:34.310Z,15.40
2018-12-27T05:34:02.868Z,16.10
2018-12-27T05:36:31.453Z,16.03
2018-12-27T05:39:00.023Z,16.33
2018-12-27T05:41:28.594Z,16.17
2018-12-27T05:43:57.182Z,15.70
2018-12-27T05:46:25.731Z,15.90
2018-12-27T05:48:54.302Z,16.63
2018-12-27T05:51:22.886Z,15.57
2018-12-27T05:53:51.461Z,14.87
2018-12-27T05:56:20.034Z,16.48
2018-12-27T05:58:48.596Z,16.43
2018-12-27T06:01:17.148Z,14.63
2018-12-27T06:03:46.010Z,14.40
2018-12-27T06:06:14.583Z,15.70
2018-12-27T06:08:43.156Z,14.73
2018-12-27T06:11:11.712Z,14.13
2018-12-27T06:13:40.281Z,16.17
2018-12-27T06:16:08.864Z,15.60
2018-12-27T06:18:37.444Z,18.13
2018-12-27T06:21:06.003Z,21.55
2018-12-27T06:23:34.572Z,17.93
2018-12-27T06:26:04.069Z,16.53
2018-12-27T06:28:32.659Z,17.13
2018-12-27T06:31:01.231Z,15.90
2018-12-27T06:33:29.821Z,15.07
2018-12-27T06:35:58.411Z,15.73
2018-12-27T06:38:27.010Z,15.13
2018-12-27T06:40:55.580Z,17.00
2018-12-27T06:43:24.160Z,15.43
2018-12-27T06:45:52.745Z,14.70
2018-12-27T06:48:22.052Z,15.77
2018-12-27T06:50:50.627Z,16.53
2018-12-27T06:53:19.220Z,15.90
2018-12-27T06:55:47.817Z,17.13
2018-12-27T06:58:16.402Z,18.40
2018-12-27T07:00:44.987Z,15.03
2018-12-27T07:03:13.570Z,18.83
2018-12-27T07:05:51.129Z,16.80
2018-12-27T07:08:19.654Z,16.97
2018-12-27T07:10:49.935Z,16.13
2018-12-27T07:13:18.768Z,17.50
2018-12-27T07:15:48.074Z,18.30
2018-12-27T07:18:17.350Z,17.23
2018-12-27T07:20:48.369Z,17.00
2018-12-27T07:23:17.239Z,15.60
2018-12-27T07:25:45.891Z,15.57
2018-12-27T07:28:15.181Z,15.70
2018-12-27T07:30:44.383Z,14.63
2018-12-27T07:33:13.111Z,16.02
2018-12-27T07:35:42.105Z,16.20
2018-12-27T07:38:10.893Z,16.60
2018-12-27T07:40:40.998Z,15.37
2018-12-27T07:43:09.560Z,21.10
2018-12-27T07:45:38.138Z,17.50
2018-12-27T07:48:09.649Z,17.17
2018-12-27T07:50:38.431Z,23.93
2018-12-27T07:53:06.998Z,17.20
2018-12-27T07:55:35.813Z,15.45
2018-12-27T07:58:10.609Z,16.67
2018-12-27T08:00:39.328Z,14.90
2018-12-27T08:03:08.067Z,15.30
2018-12-27T08:05:36.783Z,14.70
2018-12-27T08:08:05.520Z,13.83
2018-12-27T08:10:34.173Z,13.90
2018-12-27T08:13:02.830Z,14.30
2018-12-27T08:15:31.479Z,14.87
2018-12-27T08:18:00.557Z,13.23
2018-12-27T08:20:36.314Z,15.20
2018-12-27T08:23:04.928Z,15.47
2018-12-27T08:25:33.510Z,14.50
2018-12-27T08:28:02.340Z,14.33
2018-12-27T08:30:31.224Z,14.63
2018-12-27T08:33:00.043Z,13.97
2018-12-27T08:35:30.108Z,13.80
2018-12-27T08:37:58.922Z,15.07
2018-12-27T08:40:27.801Z,14.93
2018-12-27T08:43:01.079Z,15.85
2018-12-27T08:45:30.956Z,16.13
2018-12-27T08:47:59.609Z,14.60
2018-12-27T08:50:30.294Z,15.07
2018-12-27T08:52:59.121Z,15.40
2018-12-27T08:55:30.960Z,14.83
2018-12-27T08:57:59.534Z,15.53
2018-12-27T09:00:28.160Z,17.63
2018-12-27T09:02:56.728Z,15.60
2018-12-27T09:05:26.533Z,15.50
2018-12-27T09:07:55.192Z,14.20
2018-12-27T09:10:23.774Z,13.98
2018-12-27T09:12:52.367Z,14.43
2018-12-27T09:15:20.941Z,16.33
2018-12-27T09:17:49.519Z,15.30
2018-12-27T09:20:18.102Z,16.20
2018-12-27T09:22:46.697Z,14.87
2018-12-27T09:25:15.302Z,15.45
2018-12-27T09:27:43.922Z,15.53
2018-12-27T09:30:12.476Z,15.13
2018-12-27T09:32:41.268Z,19.00
2018-12-27T09:35:09.935Z,18.27
2018-12-27T09:37:38.621Z,15.48
2018-12-27T09:40:07.204Z,16.70
2018-12-27T09:42:36.205Z,15.43
2018-12-27T09:45:05.300Z,15.93
2018-12-27T09:47:33.935Z,15.73
2018-12-27T09:50:02.519Z,15.20
2018-12-27T09:52:31.170Z,15.38
2018-12-27T09:54:59.736Z,14.85
2018-12-27T09:57:28.317Z,14.57
2018-12-27T09:59:56.909Z,15.30
2018-12-27T10:02:25.476Z,14.67
2018-12-27T10:04:54.078Z,14.87
2018-12-27T10:07:22.645Z,14.50
2018-12-27T10:09:51.352Z,14.50
2018-12-27T10:12:19.949Z,15.17
2018-12-27T10:14:55.464Z,14.67
2018-12-27T10:17:24.032Z,14.07
2018-12-27T10:19:52.668Z,12.80
2018-12-27T10:22:22.350Z,14.40
2018-12-27T10:24:50.917Z,14.87
2018-12-27T10:27:19.507Z,15.83
2018-12-27T10:29:48.091Z,15.67
2018-12-27T10:32:17.000Z,14.90
2018-12-27T10:34:45.604Z,15.87
2018-12-27T10:37:14.424Z,16.13
2018-12-27T10:39:43.005Z,14.83
2018-12-27T10:42:11.588Z,16.27
2018-12-27T10:44:40.216Z,14.90
2018-12-27T10:47:08.797Z,15.13
2018-12-27T10:49:37.452Z,15.53
2018-12-27T10:52:06.022Z,14.83
2018-12-27T10:54:35.058Z,15.60
2018-12-27T10:57:03.662Z,15.40
2018-12-27T10:59:32.228Z,16.27
2018-12-27T11:02:00.806Z,15.07
2018-12-27T11:04:29.372Z,15.87
2018-12-27T11:06:59.222Z,16.95
2018-12-27T11:09:27.796Z,14.23
2018-12-27T11:11:56.382Z,15.43
2018-12-27T11:14:25.055Z,15.87
2018-12-27T11:16:53.680Z,15.30
2018-12-27T11:19:22.260Z,15.83
2018-12-27T11:21:50.824Z,15.40
2018-12-27T11:24:19.406Z,15.00
2018-12-27T11:26:47.973Z,14.67
2018-12-27T11:29:16.532Z,14.23
2018-12-27T11:31:45.142Z,14.70
2018-12-27T11:34:13.700Z,15.13
2018-12-27T11:36:42.252Z,15.83
2018-12-27T11:39:20.104Z,13.50
2018-12-27T11:41:48.708Z,14.63
2018-12-27T11:44:17.303Z,14.63
2018-12-27T11:46:45.885Z,14.60
2018-12-27T11:49:15.289Z,14.30
2018-12-27T11:51:43.880Z,14.43
2018-12-27T11:54:12.582Z,14.47
2018-12-27T11:56:41.160Z,15.43
2018-12-27T11:59:18.752Z,15.07
2018-12-27T12:01:49.563Z,13.77
2018-12-27T12:04:18.143Z,14.20
2018-12-27T12:06:46.768Z,17.20
2018-12-27T12:09:15.374Z,15.80
2018-12-27T12:11:43.937Z,15.63
2018-12-27T12:14:12.506Z,15.33
2018-12-27T12:16:41.098Z,14.34
2018-12-27T12:19:11.718Z,15.43
2018-12-27T12:21:41.088Z,13.93
2018-12-27T12:24:10.805Z,12.47
2018-12-27T12:26:40.386Z,12.87
2018-12-27T12:29:10.244Z,12.37
2018-12-27T12:31:41.051Z,13.17
2018-12-27T12:34:11.654Z,13.23
2018-12-27T12:36:41.633Z,11.83
2018-12-27T12:39:11.433Z,12.70
2018-12-27T12:41:50.359Z,13.30
2018-12-27T12:44:20.153Z,13.93
2018-12-27T12:46:49.863Z,13.13
2018-12-27T12:49:19.699Z,14.13
2018-12-27T12:51:49.592Z,13.60
2018-12-27T12:54:18.748Z,13.32
2018-12-27T12:56:48.236Z,13.97
2018-12-27T12:59:17.988Z,13.72
2018-12-27T13:01:49.799Z,15.43
2018-12-27T13:04:18.387Z,15.40
2018-12-27T13:06:46.967Z,15.20
2018-12-27T13:09:15.545Z,14.37
2018-12-27T13:11:44.130Z,15.23
2018-12-27T13:14:13.234Z,16.25
2018-12-27T13:16:41.784Z,15.40
2018-12-27T13:19:10.348Z,16.73
2018-12-27T13:21:38.908Z,17.93
2018-12-27T13:24:07.476Z,19.37
2018-12-27T13:26:36.042Z,17.83
2018-12-27T13:29:05.900Z,17.60
2018-12-27T13:31:34.465Z,18.00
2018-12-27T13:34:03.050Z,18.93
2018-12-27T13:36:32.002Z,17.17
2018-12-27T13:39:00.592Z,17.27
2018-12-27T13:41:29.932Z,16.60
2018-12-27T13:43:58.540Z,15.77
2018-12-27T13:46:27.092Z,15.03
2018-12-27T13:48:55.670Z,15.20
2018-12-27T13:51:24.459Z,16.93
2018-12-27T13:53:53.024Z,15.53
2018-12-27T13:56:21.592Z,15.73
2018-12-27T13:58:50.174Z,14.97
2018-12-27T14:01:18.743Z,16.03
2018-12-27T14:03:47.308Z,15.70
2018-12-27T14:06:15.894Z,16.13
2018-12-27T14:08:44.462Z,15.30
2018-12-27T14:11:13.042Z,15.80
2018-12-27T14:13:41.719Z,17.37
2018-12-27T14:16:10.744Z,15.43
2018-12-27T14:18:39.309Z,16.33
2018-12-27T14:21:08.054Z,16.27
2018-12-27T14:23:40.763Z,15.93
2018-12-27T14:26:10.271Z,15.70
2018-12-27T14:28:38.834Z,16.80
2018-12-27T14:31:07.425Z,15.93
2018-12-27T14:33:36.004Z,14.98
2018-12-27T14:36:04.593Z,16.77
2018-12-27T14:38:33.161Z,17.27
2018-12-27T14:41:01.755Z,16.07
2018-12-27T14:43:30.362Z,16.47
2018-12-27T14:45:58.942Z,16.70
2018-12-27T14:48:29.392Z,15.27
2018-12-27T14:50:57.950Z,15.98
2018-12-27T14:53:26.535Z,16.03
2018-12-27T14:55:55.144Z,17.03
2018-12-27T14:58:23.723Z,16.73
2018-12-27T15:00:52.323Z,16.07
2018-12-27T15:03:28.254Z,15.90
2018-12-27T15:05:56.829Z,17.90
2018-12-27T15:08:27.448Z,22.93
2018-12-27T15:10:56.028Z,21.93
2018-12-27T15:13:24.595Z,21.23
2018-12-27T15:15:55.179Z,18.00
2018-12-27T15:18:24.069Z,16.37
2018-12-27T15:20:53.408Z,17.45
2018-12-27T15:23:22.004Z,16.80
2018-12-27T15:25:50.605Z,17.40
2018-12-27T15:28:19.177Z,16.87
2018-12-27T15:30:49.997Z,17.27
2018-12-27T15:33:18.552Z,17.40
2018-12-27T15:35:47.214Z,17.25
2018-12-27T15:38:16.029Z,17.97
2018-12-27T15:40:44.610Z,20.27
2018-12-27T15:43:17.070Z,19.60
2018-12-27T15:45:45.640Z,20.83
2018-12-27T15:48:14.264Z,27.10
2018-12-27T15:50:42.820Z,18.10
2018-12-27T15:53:11.444Z,17.83
2018-12-27T15:55:40.096Z,17.23
2018-12-27T15:58:08.927Z,16.83
2018-12-27T16:00:39.503Z,20.17
2018-12-27T16:03:08.177Z,17.47
2018-12-27T16:05:36.908Z,20.10
2018-12-27T16:08:08.716Z,19.43
2018-12-27T16:10:43.366Z,18.80
2018-12-27T16:13:11.954Z,17.80
2018-12-27T16:15:40.527Z,20.00
2018-12-27T16:18:09.108Z,19.73
2018-12-27T16:20:38.214Z,18.80
2018-12-27T16:23:06.790Z,20.77
2018-12-27T16:25:35.355Z,21.40
2018-12-27T16:28:03.940Z,22.52
2018-12-27T16:30:32.542Z,21.70
2018-12-27T16:33:01.136Z,21.33
2018-12-27T16:35:29.696Z,22.77
2018-12-27T16:37:58.324Z,22.37
2018-12-27T16:40:26.911Z,21.10
2018-12-27T16:42:56.072Z,19.53
2018-12-27T16:45:30.712Z,18.13
2018-12-27T16:48:01.029Z,20.05
2018-12-27T16:50:29.623Z,18.57
2018-12-27T16:52:58.205Z,18.93
2018-12-27T16:55:26.789Z,18.60
2018-12-27T16:57:55.360Z,19.63
2018-12-27T17:00:23.947Z,18.67
2018-12-27T17:02:52.513Z,19.03
2018-12-27T17:05:21.126Z,19.90
2018-12-27T17:07:49.682Z,17.97
2018-12-27T17:10:18.315Z,19.83
2018-12-27T17:12:46.882Z,19.00
2018-12-27T17:15:15.448Z,18.63
2018-12-27T17:17:44.012Z,19.37
2018-12-27T17:20:12.588Z,18.73
2018-12-27T17:22:41.155Z,19.25
2018-12-27T17:25:09.801Z,19.90
2018-12-27T17:27:38.589Z,19.73
2018-12-27T17:30:07.509Z,20.30
2018-12-27T17:32:36.116Z,19.37
2018-12-27T17:35:04.993Z,19.87
2018-12-27T17:37:33.571Z,19.23
2018-12-27T17:40:02.124Z,20.23
2018-12-27T17:42:30.696Z,19.23
2018-12-27T17:44:59.257Z,19.33
2018-12-27T17:47:27.849Z,16.37
2018-12-27T17:49:56.398Z,16.57
2018-12-27T17:52:30.232Z,18.00
2018-12-27T17:54:55.392Z,17.23
2018-12-27T17:57:23.971Z,16.23
2018-12-27T17:59:52.507Z,17.63
2018-12-27T18:02:27.597Z,18.48
2018-12-27T18:04:56.167Z,17.10
2018-12-27T18:07:30.513Z,17.10
2018-12-27T18:09:56.143Z,18.37
2018-12-27T18:12:24.713Z,17.50
2018-12-27T18:15:00.025Z,17.60
2018-12-27T18:17:30.740Z,18.47
2018-12-27T18:19:59.298Z,18.47
2018-12-27T18:22:30.253Z,18.40
2018-12-27T18:24:59.629Z,18.53
2018-12-27T18:27:29.230Z,19.67
2018-12-27T18:29:57.782Z,18.80
2018-12-27T18:32:26.352Z,18.73
2018-12-27T18:34:58.291Z,19.43
2018-12-27T18:37:37.674Z,18.90
2018-12-27T18:40:03.163Z,19.53
2018-12-27T18:42:31.750Z,19.87
2018-12-27T18:45:00.345Z,19.30
2018-12-27T18:47:29.103Z,19.07
2018-12-27T18:49:57.678Z,20.23
2018-12-27T18:52:26.379Z,19.30
2018-12-27T18:54:54.945Z,19.10
2018-12-27T18:57:29.381Z,19.77
2018-12-27T18:59:57.966Z,19.73
2018-12-27T19:02:26.544Z,19.37
2018-12-27T19:04:55.124Z,20.83
2018-12-27T19:07:23.728Z,20.47
2018-12-27T19:09:52.302Z,20.90
2018-12-27T19:12:57.029Z,20.97
2018-12-27T19:15:27.740Z,20.40
2018-12-27T19:18:04.201Z,21.93
2018-12-27T19:20:33.708Z,20.90
2018-12-27T19:23:10.176Z,21.10
2018-12-27T19:25:38.761Z,20.87
2018-12-27T19:28:07.326Z,21.63
2018-12-27T19:30:38.140Z,22.20
2018-12-27T19:33:06.970Z,22.07
2018-12-27T19:35:35.558Z,21.20
2018-12-27T19:38:04.295Z,21.20
2018-12-27T19:40:39.575Z,21.17
2018-12-27T19:43:08.156Z,21.27
2018-12-27T19:45:36.732Z,21.97
2018-12-27T19:48:05.300Z,20.67
2018-12-27T19:50:34.074Z,21.53
2018-12-27T19:53:02.760Z,21.17
2018-12-27T19:55:35.523Z,20.13
2018-12-27T19:58:04.085Z,20.70
2018-12-27T20:00:32.652Z,20.23
2018-12-27T20:03:01.228Z,20.67
2018-12-27T20:05:29.856Z,20.87
2018-12-27T20:07:59.451Z,19.97
2018-12-27T20:10:29.292Z,20.55
2018-12-27T20:12:57.911Z,20.03
2018-12-27T20:15:26.483Z,20.27
2018-12-27T20:17:55.087Z,19.93
2018-12-27T20:20:23.661Z,21.13
2018-12-27T20:22:52.230Z,19.35
2018-12-27T20:25:20.800Z,20.40
2018-12-27T20:27:49.391Z,21.00
2018-12-27T20:30:18.028Z,19.70
2018-12-27T20:32:47.256Z,21.57
2018-12-27T20:35:15.970Z,21.53
2018-12-27T20:37:44.558Z,22.90
2018-12-27T20:40:13.137Z,22.43
2018-12-27T20:42:41.702Z,23.80
2018-12-27T20:45:10.316Z,23.90
2018-12-27T20:47:38.978Z,24.37
2018-12-27T20:50:07.820Z,24.53
2018-12-27T20:52:37.574Z,24.20
2018-12-27T20:55:07.093Z,24.23
2018-12-27T20:57:35.648Z,25.23
2018-12-27T21:00:04.397Z,25.23
2018-12-27T21:02:32.973Z,23.67
2018-12-27T21:05:01.526Z,24.07
2018-12-27T21:07:30.262Z,24.03
2018-12-27T21:09:58.900Z,24.60
2018-12-27T21:12:27.468Z,24.13
2018-12-27T21:14:56.042Z,24.27
2018-12-27T21:17:25.059Z,25.20
2018-12-27T21:19:53.628Z,25.37
2018-12-27T21:22:22.279Z,24.00
2018-12-27T21:24:50.842Z,25.97
2018-12-27T21:27:19.675Z,25.53
2018-12-27T21:29:48.247Z,25.75
2018-12-27T21:32:16.860Z,25.33
2018-12-27T21:34:45.449Z,26.50
2018-12-27T21:37:14.048Z,24.80
2018-12-27T21:39:42.655Z,24.93
2018-12-27T21:42:11.312Z,23.53
2018-12-27T21:44:39.909Z,25.83
2018-12-27T21:47:08.492Z,25.07
2018-12-27T21:49:37.065Z,26.00
2018-12-27T21:52:05.637Z,26.63
2018-12-27T21:54:34.206Z,25.90
2018-12-27T21:57:02.783Z,25.97
2018-12-27T21:59:31.361Z,26.40
2018-12-27T22:02:02.824Z,26.07
2018-12-27T22:04:31.473Z,26.83
2018-12-27T22:07:00.058Z,27.30
2018-12-27T22:09:28.659Z,26.37
2018-12-27T22:11:58.518Z,26.93
2018-12-27T22:14:27.108Z,27.50
2018-12-27T22:16:55.675Z,27.73
2018-12-27T22:19:24.255Z,27.17
2018-12-27T22:21:52.812Z,26.50
2018-12-27T22:24:21.397Z,28.27
2018-12-27T22:26:49.968Z,27.20
2018-12-27T22:29:19.214Z,25.90
2018-12-27T22:31:47.781Z,28.83
2018-12-27T22:34:16.363Z,26.73
2018-12-27T22:36:44.913Z,27.23
2018-12-27T22:39:13.494Z,33.77
2018-12-27T22:41:42.045Z,28.87
2018-12-27T22:44:10.623Z,30.93
2018-12-27T22:46:39.199Z,30.20
2018-12-27T22:49:07.770Z,29.33
2018-12-27T22:51:36.964Z,28.37
2018-12-27T22:54:05.601Z,28.60
2018-12-27T22:56:34.182Z,29.37
2018-12-27T22:59:02.765Z,29.50
2018-12-27T23:01:31.304Z,29.60
2018-12-27T23:03:59.928Z,30.35
2018-12-27T23:06:28.503Z,31.07
2018-12-27T23:08:57.072Z,29.70
2018-12-27T23:11:25.680Z,32.13
2018-12-27T23:13:55.058Z,30.17
2018-12-27T23:16:23.638Z,31.07
2018-12-27T23:18:52.200Z,29.80
2018-12-27T23:21:20.782Z,30.83
2018-12-27T23:23:49.351Z,29.50
2018-12-27T23:26:21.280Z,29.12
2018-12-27T23:28:49.840Z,30.80
2018-12-27T23:31:18.404Z,29.60
2018-12-27T23:33:46.982Z,28.50
2018-12-27T23:36:15.553Z,28.90
2018-12-27T23:38:50.089Z,30.40
2018-12-27T23:41:16.124Z,30.27
2018-12-27T23:43:44.722Z,29.07
2018-12-27T23:46:13.289Z,29.10
2018-12-27T23:48:41.859Z,30.03
2018-12-27T23:51:10.423Z,28.30
2018-12-27T23:53:38.996Z,30.27
2018-12-27T23:56:07.565Z,29.47
2018-12-27T23:58:36.137Z,31.50
